sensor_id;sensor_type;location;lat;lon;timestamp;pressure;altitude;pressure_sealevel;temperature;humidity
6778;BME280;3426;52.244;10.534;2023-01-26T00:01:15;101612.72;;;1.45;79.08
6778;BME280;3426;52.244;10.534;2023-01-26T00:03:42;101611.00;;;1.35;79.15
6778;BME280;3426;52.244;10.534;2023-01-26T00:06:11;101607.50;;;1.45;78.37
6778;BME280;3426;52.244;10.534;2023-01-26T00:08:42;101599.44;;;2.23;76.60
6778;BME280;3426;52.244;10.534;2023-01-26T00:11:11;101602.31;;;0.76;78.89
6778;BME280;3426;52.244;10.534;2023-01-26T00:13:38;101600.44;;;1.86;77.67
6778;BME280;3426;52.244;10.534;2023-01-26T00:16:08;101590.84;;;1.92;77.21
6778;BME280;3426;52.244;10.534;2023-01-26T00:18:36;101589.81;;;2.26;75.82
6778;BME280;3426;52.244;10.534;2023-01-26T00:21:03;101582.00;;;2.28;74.86
6778;BME280;3426;52.244;10.534;2023-01-26T00:23:31;101589.97;;;1.91;74.65
6778;BME280;3426;52.244;10.534;2023-01-26T00:25:59;101573.13;;;2.52;73.23
6778;BME280;3426;52.244;10.534;2023-01-26T00:28:26;101568.00;;;2.33;74.96
6778;BME280;3426;52.244;10.534;2023-01-26T00:30:53;101567.19;;;2.22;73.01
6778;BME280;3426;52.244;10.534;2023-01-26T00:33:19;101572.75;;;1.26;76.17
6778;BME280;3426;52.244;10.534;2023-01-26T00:35:53;101572.56;;;1.95;76.24
6778;BME280;3426;52.244;10.534;2023-01-26T00:38:19;101573.47;;;1.78;77.12
6778;BME280;3426;52.244;10.534;2023-01-26T00:40:46;101568.81;;;2.42;73.73
6778;BME280;3426;52.244;10.534;2023-01-26T00:43:12;101564.00;;;1.47;75.96
6778;BME280;3426;52.244;10.534;2023-01-26T00:45:39;101573.59;;;1.02;78.89
6778;BME280;3426;52.244;10.534;2023-01-26T00:48:06;101582.31;;;1.15;78.77
6778;BME280;3426;52.244;10.534;2023-01-26T00:50:32;101573.59;;;1.13;77.77
6778;BME280;3426;52.244;10.534;2023-01-26T00:52:59;101569.13;;;1.74;76.80
6778;BME280;3426;52.244;10.534;2023-01-26T00:55:25;101573.59;;;1.02;77.35
6778;BME280;3426;52.244;10.534;2023-01-26T00:58:01;101562.28;;;1.32;76.98
6778;BME280;3426;52.244;10.534;2023-01-26T01:00:28;101557.78;;;1.88;75.02
6778;BME280;3426;52.244;10.534;2023-01-26T01:02:56;101565.69;;;1.71;74.72
6778;BME280;3426;52.244;10.534;2023-01-26T01:05:24;101570.13;;;1.33;75.62
6778;BME280;3426;52.244;10.534;2023-01-26T01:07:51;101574.44;;;1.50;75.45
6778;BME280;3426;52.244;10.534;2023-01-26T01:10:18;101560.47;;;1.62;74.84
6778;BME280;3426;52.244;10.534;2023-01-26T01:12:44;101560.56;;;1.25;77.15
6778;BME280;3426;52.244;10.534;2023-01-26T01:15:11;101557.09;;;1.00;76.96
6778;BME280;3426;52.244;10.534;2023-01-26T01:17:38;101559.63;;;1.50;76.85
6778;BME280;3426;52.244;10.534;2023-01-26T01:20:06;101549.28;;;0.77;77.35
6778;BME280;3426;52.244;10.534;2023-01-26T01:22:34;101561.41;;;0.43;79.02
6778;BME280;3426;52.244;10.534;2023-01-26T01:25:01;101562.31;;;1.04;78.07
6778;BME280;3426;52.244;10.534;2023-01-26T01:27:28;101553.50;;;1.67;75.33
6778;BME280;3426;52.244;10.534;2023-01-26T01:29:54;101559.69;;;1.30;75.27
6778;BME280;3426;52.244;10.534;2023-01-26T01:32:21;101552.59;;;1.78;74.78
6778;BME280;3426;52.244;10.534;2023-01-26T01:34:48;101547.47;;;1.48;75.34
6778;BME280;3426;52.244;10.534;2023-01-26T01:37:16;101550.16;;;0.91;77.35
6778;BME280;3426;52.244;10.534;2023-01-26T01:39:42;101548.41;;;1.10;75.26
6778;BME280;3426;52.244;10.534;2023-01-26T01:42:09;101542.13;;;1.83;72.99
6778;BME280;3426;52.244;10.534;2023-01-26T01:44:37;101546.59;;;1.53;74.49
6778;BME280;3426;52.244;10.534;2023-01-26T01:47:15;101538.81;;;1.18;75.82
6778;BME280;3426;52.244;10.534;2023-01-26T01:49:47;101539.72;;;0.70;76.81
6778;BME280;3426;52.244;10.534;2023-01-26T01:52:18;101537.13;;;0.88;77.91
6778;BME280;3426;52.244;10.534;2023-01-26T01:54:49;101532.72;;;1.38;74.91
6778;BME280;3426;52.244;10.534;2023-01-26T01:57:22;101530.91;;;1.56;75.54
6778;BME280;3426;52.244;10.534;2023-01-26T01:59:57;101527.47;;;1.39;73.54
6778;BME280;3426;52.244;10.534;2023-01-26T02:02:26;101530.94;;;1.49;75.47
6778;BME280;3426;52.244;10.534;2023-01-26T02:04:56;101526.50;;;1.72;74.29
6778;BME280;3426;52.244;10.534;2023-01-26T02:07:27;101519.72;;;1.05;75.71
6778;BME280;3426;52.244;10.534;2023-01-26T02:09:54;101513.56;;;1.37;74.77
6778;BME280;3426;52.244;10.534;2023-01-26T02:12:39;101512.78;;;0.78;76.57
6778;BME280;3426;52.244;10.534;2023-01-26T02:15:07;101499.69;;;1.26;75.49
6778;BME280;3426;52.244;10.534;2023-01-26T02:17:33;101507.56;;;1.03;76.91
6778;BME280;3426;52.244;10.534;2023-01-26T02:20:12;101510.97;;;1.29;76.47
6778;BME280;3426;52.244;10.534;2023-01-26T02:23:04;101498.69;;;1.53;73.20
6778;BME280;3426;52.244;10.534;2023-01-26T02:28:16;101496.25;;;0.18;78.18
6778;BME280;3426;52.244;10.534;2023-01-26T02:30:44;101501.47;;;0.73;76.74
6778;BME280;3426;52.244;10.534;2023-01-26T02:33:17;101498.00;;;0.97;77.50
6778;BME280;3426;52.244;10.534;2023-01-26T02:35:43;101488.38;;;1.18;74.09
6778;BME280;3426;52.244;10.534;2023-01-26T02:38:10;101503.97;;;1.36;75.12
6778;BME280;3426;52.244;10.534;2023-01-26T02:40:42;101502.34;;;0.94;75.30
6778;BME280;3426;52.244;10.534;2023-01-26T02:43:09;101511.00;;;1.14;75.10
6778;BME280;3426;52.244;10.534;2023-01-26T02:45:37;101504.97;;;0.80;73.54
6778;BME280;3426;52.244;10.534;2023-01-26T02:48:05;101505.81;;;1.08;75.25
6778;BME280;3426;52.244;10.534;2023-01-26T02:50:33;101501.47;;;0.38;75.52
6778;BME280;3426;52.244;10.534;2023-01-26T02:53:01;101511.84;;;0.14;76.83
6778;BME280;3426;52.244;10.534;2023-01-26T02:55:27;101507.56;;;0.36;76.58
6778;BME280;3426;52.244;10.534;2023-01-26T02:57:56;101494.47;;;1.17;74.30
6778;BME280;3426;52.244;10.534;2023-01-26T03:00:26;101490.97;;;1.28;73.39
6778;BME280;3426;52.244;10.534;2023-01-26T03:02:55;101483.03;;;1.53;72.65
6778;BME280;3426;52.244;10.534;2023-01-26T03:05:23;101490.19;;;0.87;74.21
6778;BME280;3426;52.244;10.534;2023-01-26T03:07:49;101489.31;;;0.69;73.95
6778;BME280;3426;52.244;10.534;2023-01-26T03:10:16;101474.34;;;1.57;72.45
6778;BME280;3426;52.244;10.534;2023-01-26T03:12:44;101473.56;;;1.33;72.68
6778;BME280;3426;52.244;10.534;2023-01-26T03:15:11;101472.78;;;0.89;72.02
6778;BME280;3426;52.244;10.534;2023-01-26T03:18:03;101477.81;;;1.59;70.65
6778;BME280;3426;52.244;10.534;2023-01-26T03:20:49;101478.00;;;0.73;74.43
6778;BME280;3426;52.244;10.534;2023-01-26T03:23:34;101477.13;;;1.08;73.09
6778;BME280;3426;52.244;10.534;2023-01-26T03:26:18;101471.06;;;0.66;74.70
6778;BME280;3426;52.244;10.534;2023-01-26T03:29:03;101467.50;;;1.25;74.17
6778;BME280;3426;52.244;10.534;2023-01-26T03:31:30;101467.50;;;1.25;71.92
6778;BME280;3426;52.244;10.534;2023-01-26T03:33:56;101465.78;;;1.15;73.51
6778;BME280;3426;52.244;10.534;2023-01-26T03:36:23;101465.88;;;0.30;74.99
6778;BME280;3426;52.244;10.534;2023-01-26T03:38:49;101475.41;;;0.79;73.98
6778;BME280;3426;52.244;10.534;2023-01-26T03:41:16;101475.38;;;0.98;73.48
6778;BME280;3426;52.244;10.534;2023-01-26T03:44:00;101476.25;;;0.98;74.58
6778;BME280;3426;52.244;10.534;2023-01-26T03:46:45;101476.25;;;0.20;76.12
6778;BME280;3426;52.244;10.534;2023-01-26T03:49:30;101474.56;;;0.47;74.72
6778;BME280;3426;52.244;10.534;2023-01-26T03:52:15;101466.75;;;0.29;75.32
6778;BME280;3426;52.244;10.534;2023-01-26T03:55:00;101473.66;;;0.98;72.88
6778;BME280;3426;52.244;10.534;2023-01-26T03:57:44;101471.00;;;1.06;72.77
6778;BME280;3426;52.244;10.534;2023-01-26T04:00:12;101471.00;;;1.20;71.91
6778;BME280;3426;52.244;10.534;2023-01-26T04:02:40;101459.56;;;1.56;71.95
6778;BME280;3426;52.244;10.534;2023-01-26T04:05:25;101464.66;;;1.82;70.78
6778;BME280;3426;52.244;10.534;2023-01-26T04:08:10;101460.13;;;2.08;68.69
6778;BME280;3426;52.244;10.534;2023-01-26T04:10:55;101458.72;;;1.48;71.85
6778;BME280;3426;52.244;10.534;2023-01-26T04:13:22;101462.84;;;1.93;71.44
6778;BME280;3426;52.244;10.534;2023-01-26T04:16:09;101461.97;;;1.96;69.80
6778;BME280;3426;52.244;10.534;2023-01-26T04:18:54;101459.53;;;1.62;70.85
6778;BME280;3426;52.244;10.534;2023-01-26T04:21:39;101451.50;;;1.99;69.23
6778;BME280;3426;52.244;10.534;2023-01-26T04:24:06;101444.69;;;1.72;70.86
6778;BME280;3426;52.244;10.534;2023-01-26T04:26:42;101445.69;;;1.45;71.70
6778;BME280;3426;52.244;10.534;2023-01-26T04:29:12;101454.31;;;1.56;71.13
6778;BME280;3426;52.244;10.534;2023-01-26T04:31:39;101441.09;;;1.90;69.90
6778;BME280;3426;52.244;10.534;2023-01-26T04:34:10;101443.94;;;1.48;70.43
6778;BME280;3426;52.244;10.534;2023-01-26T04:36:37;101440.53;;;1.28;73.03
6778;BME280;3426;52.244;10.534;2023-01-26T04:39:04;101435.28;;;1.34;72.36
6778;BME280;3426;52.244;10.534;2023-01-26T04:41:31;101444.88;;;1.30;72.92
6778;BME280;3426;52.244;10.534;2023-01-26T04:43:57;101441.84;;;2.07;70.59
6778;BME280;3426;52.244;10.534;2023-01-26T04:46:24;101440.13;;;2.06;69.71
6778;BME280;3426;52.244;10.534;2023-01-26T04:48:51;101427.97;;;1.97;68.95
6778;BME280;3426;52.244;10.534;2023-01-26T04:51:19;101427.47;;;1.32;71.48
6778;BME280;3426;52.244;10.534;2023-01-26T04:53:47;101423.25;;;0.87;72.45
6778;BME280;3426;52.244;10.534;2023-01-26T04:56:26;101416.13;;;1.43;72.35
6778;BME280;3426;52.244;10.534;2023-01-26T04:58:54;101420.47;;;1.36;71.60
6778;BME280;3426;52.244;10.534;2023-01-26T05:01:21;101412.59;;;1.47;72.39
6778;BME280;3426;52.244;10.534;2023-01-26T05:03:47;101416.03;;;1.56;71.26
6778;BME280;3426;52.244;10.534;2023-01-26T05:06:14;101421.94;;;1.91;70.84
6778;BME280;3426;52.244;10.534;2023-01-26T05:08:40;101419.53;;;1.51;71.29
6778;BME280;3426;52.244;10.534;2023-01-26T05:11:07;101425.47;;;1.80;71.84
6778;BME280;3426;52.244;10.534;2023-01-26T05:13:33;101418.41;;;1.98;70.14
6778;BME280;3426;52.244;10.534;2023-01-26T05:16:02;101426.59;;;1.29;71.77
6778;BME280;3426;52.244;10.534;2023-01-26T05:18:29;101422.28;;;1.17;72.64
6778;BME280;3426;52.244;10.534;2023-01-26T05:20:56;101412.75;;;1.15;72.51
6778;BME280;3426;52.244;10.534;2023-01-26T05:23:23;101412.63;;;1.36;72.38
6778;BME280;3426;52.244;10.534;2023-01-26T05:25:49;101416.66;;;1.97;71.00
6778;BME280;3426;52.244;10.534;2023-01-26T05:28:16;101425.25;;;2.17;70.16
6778;BME280;3426;52.244;10.534;2023-01-26T05:30:42;101425.03;;;2.42;68.62
6778;BME280;3426;52.244;10.534;2023-01-26T05:33:10;101423.59;;;2.02;69.61
6778;BME280;3426;52.244;10.534;2023-01-26T05:35:37;101434.31;;;1.52;73.65
6778;BME280;3426;52.244;10.534;2023-01-26T05:38:03;101431.47;;;1.96;72.30
6778;BME280;3426;52.244;10.534;2023-01-26T05:40:30;101431.25;;;2.27;71.09
6778;BME280;3426;52.244;10.534;2023-01-26T05:42:56;101426.56;;;1.38;73.14
6778;BME280;3426;52.244;10.534;2023-01-26T05:45:23;101431.06;;;0.93;75.71
6778;BME280;3426;52.244;10.534;2023-01-26T05:47:50;101437.56;;;2.00;73.57
6778;BME280;3426;52.244;10.534;2023-01-26T05:50:16;101441.38;;;1.31;75.74
6778;BME280;3426;52.244;10.534;2023-01-26T05:52:43;101437.66;;;1.84;74.37
6778;BME280;3426;52.244;10.534;2023-01-26T05:55:11;101435.03;;;1.84;73.29
6778;BME280;3426;52.244;10.534;2023-01-26T05:57:38;101434.16;;;1.81;74.58
6778;BME280;3426;52.244;10.534;2023-01-26T06:00:05;101434.09;;;1.92;73.26
6778;BME280;3426;52.244;10.534;2023-01-26T06:02:32;101435.19;;;1.52;74.81
6778;BME280;3426;52.244;10.534;2023-01-26T06:04:58;101436.81;;;1.78;75.51
6778;BME280;3426;52.244;10.534;2023-01-26T06:07:25;101440.22;;;1.91;73.72
6778;BME280;3426;52.244;10.534;2023-01-26T06:09:52;101443.34;;;2.42;72.29
6778;BME280;3426;52.244;10.534;2023-01-26T06:12:19;101448.63;;;2.32;71.82
6778;BME280;3426;52.244;10.534;2023-01-26T06:14:46;101438.66;;;1.53;74.28
6778;BME280;3426;52.244;10.534;2023-01-26T06:17:13;101448.28;;;1.42;75.39
6778;BME280;3426;52.244;10.534;2023-01-26T06:19:40;101445.56;;;1.72;75.00
6778;BME280;3426;52.244;10.534;2023-01-26T06:22:08;101444.38;;;2.22;73.21
6778;BME280;3426;52.244;10.534;2023-01-26T06:24:34;101441.88;;;2.04;72.80
6778;BME280;3426;52.244;10.534;2023-01-26T06:27:01;101448.16;;;1.69;74.10
6778;BME280;3426;52.244;10.534;2023-01-26T06:29:28;101448.28;;;1.45;74.94
6778;BME280;3426;52.244;10.534;2023-01-26T06:31:55;101456.50;;;2.26;73.17
6778;BME280;3426;52.244;10.534;2023-01-26T06:34:21;101452.06;;;2.41;72.74
6778;BME280;3426;52.244;10.534;2023-01-26T06:36:48;101453.25;;;1.97;73.27
6778;BME280;3426;52.244;10.534;2023-01-26T06:39:14;101451.31;;;2.23;74.09
6778;BME280;3426;52.244;10.534;2023-01-26T06:41:42;101460.50;;;1.37;76.66
6778;BME280;3426;52.244;10.534;2023-01-26T06:44:10;101458.78;;;1.23;77.84
6778;BME280;3426;52.244;10.534;2023-01-26T06:46:36;101458.38;;;2.09;75.33
6778;BME280;3426;52.244;10.534;2023-01-26T06:49:03;101455.13;;;1.73;75.31
6778;BME280;3426;52.244;10.534;2023-01-26T06:51:51;101454.25;;;1.71;75.59
6778;BME280;3426;52.244;10.534;2023-01-26T06:57:59;101450.06;;;1.35;77.83
6778;BME280;3426;52.244;10.534;2023-01-26T07:00:26;101448.06;;;1.89;77.03
6778;BME280;3426;52.244;10.534;2023-01-26T07:02:52;101449.03;;;1.71;77.28
6778;BME280;3426;52.244;10.534;2023-01-26T07:05:19;101455.25;;;1.49;77.33
6778;BME280;3426;52.244;10.534;2023-01-26T07:07:45;101452.41;;;1.90;77.59
6778;BME280;3426;52.244;10.534;2023-01-26T07:10:12;101459.75;;;1.02;79.24
6778;BME280;3426;52.244;10.534;2023-01-26T07:12:44;101449.09;;;1.53;78.97
6778;BME280;3426;52.244;10.534;2023-01-26T07:15:11;101458.66;;;1.60;77.46
6778;BME280;3426;52.244;10.534;2023-01-26T07:17:38;101459.75;;;0.89;80.32
6778;BME280;3426;52.244;10.534;2023-01-26T07:20:05;101455.03;;;1.85;78.42
6778;BME280;3426;52.244;10.534;2023-01-26T07:22:32;101461.97;;;1.93;77.47
6778;BME280;3426;52.244;10.534;2023-01-26T07:24:59;101461.22;;;1.68;78.51
6778;BME280;3426;52.244;10.534;2023-01-26T07:27:25;101458.53;;;1.81;78.39
6778;BME280;3426;52.244;10.534;2023-01-26T07:32:44;101463.84;;;1.66;77.28
6778;BME280;3426;52.244;10.534;2023-01-26T07:35:11;101464.59;;;1.86;79.31
6778;BME280;3426;52.244;10.534;2023-01-26T07:37:37;101462.00;;;1.88;77.76
6778;BME280;3426;52.244;10.534;2023-01-26T07:40:04;101472.63;;;1.47;79.04
6778;BME280;3426;52.244;10.534;2023-01-26T07:42:31;101463.84;;;1.71;78.51
6778;BME280;3426;52.244;10.534;2023-01-26T07:44:57;101471.59;;;1.84;78.16
6778;BME280;3426;52.244;10.534;2023-01-26T07:47:25;101475.19;;;1.61;77.90
6778;BME280;3426;52.244;10.534;2023-01-26T07:49:51;101477.72;;;1.76;78.15
6778;BME280;3426;52.244;10.534;2023-01-26T07:52:18;101476.59;;;2.20;77.18
6778;BME280;3426;52.244;10.534;2023-01-26T07:54:44;101483.16;;;1.16;79.56
6778;BME280;3426;52.244;10.534;2023-01-26T07:57:11;101479.41;;;1.94;77.12
6778;BME280;3426;52.244;10.534;2023-01-26T07:59:38;101474.44;;;1.32;79.81
6778;BME280;3426;52.244;10.534;2023-01-26T08:02:04;101474.38;;;1.54;78.76
6778;BME280;3426;52.244;10.534;2023-01-26T08:04:31;101483.94;;;1.46;78.88
6778;BME280;3426;52.244;10.534;2023-01-26T08:06:57;101474.03;;;2.17;77.22
6778;BME280;3426;52.244;10.534;2023-01-26T08:09:24;101467.06;;;2.17;78.02
6778;BME280;3426;52.244;10.534;2023-01-26T08:11:51;101467.53;;;2.66;75.65
6778;BME280;3426;52.244;10.534;2023-01-26T08:14:18;101471.47;;;2.10;76.85
6778;BME280;3426;52.244;10.534;2023-01-26T08:16:44;101471.94;;;2.61;75.16
6778;BME280;3426;52.244;10.534;2023-01-26T08:19:11;101479.16;;;2.33;74.73
6778;BME280;3426;52.244;10.534;2023-01-26T08:21:38;101461.84;;;2.14;75.95
6778;BME280;3426;52.244;10.534;2023-01-26T08:24:05;101470.63;;;2.01;76.94
6778;BME280;3426;52.244;10.534;2023-01-26T08:26:32;101471.34;;;2.26;76.97
6778;BME280;3426;52.244;10.534;2023-01-26T08:28:58;101477.50;;;2.14;76.65
6778;BME280;3426;52.244;10.534;2023-01-26T08:31:24;101471.66;;;1.69;78.08
6778;BME280;3426;52.244;10.534;2023-01-26T08:33:54;101471.44;;;2.12;76.36
6778;BME280;3426;52.244;10.534;2023-01-26T08:36:21;101475.00;;;1.99;77.91
6778;BME280;3426;52.244;10.534;2023-01-26T08:38:49;101465.44;;;1.95;78.15
6778;BME280;3426;52.244;10.534;2023-01-26T08:41:15;101469.94;;;1.68;79.88
6778;BME280;3426;52.244;10.534;2023-01-26T08:43:42;101460.09;;;2.16;77.78
6778;BME280;3426;52.244;10.534;2023-01-26T08:46:09;101460.94;;;2.18;78.78
6778;BME280;3426;52.244;10.534;2023-01-26T08:48:36;101449.94;;;1.67;78.26
6778;BME280;3426;52.244;10.534;2023-01-26T08:51:04;101457.69;;;1.79;77.81
6778;BME280;3426;52.244;10.534;2023-01-26T08:53:32;101460.94;;;2.20;76.90
6778;BME280;3426;52.244;10.534;2023-01-26T08:56:07;101470.69;;;1.87;77.26
6778;BME280;3426;52.244;10.534;2023-01-26T08:58:35;101473.81;;;2.46;77.55
6778;BME280;3426;52.244;10.534;2023-01-26T09:01:05;101456.94;;;1.53;80.16
6778;BME280;3426;52.244;10.534;2023-01-26T09:03:32;101454.22;;;1.77;79.89
6778;BME280;3426;52.244;10.534;2023-01-26T09:05:59;101463.75;;;1.84;78.97
6778;BME280;3426;52.244;10.534;2023-01-26T09:08:26;101464.97;;;2.59;77.74
6778;BME280;3426;52.244;10.534;2023-01-26T09:10:53;101464.41;;;2.22;76.47
6778;BME280;3426;52.244;10.534;2023-01-26T09:13:19;101453.28;;;1.91;77.90
6778;BME280;3426;52.244;10.534;2023-01-26T09:15:46;101455.72;;;2.18;78.06
6778;BME280;3426;52.244;10.534;2023-01-26T09:18:12;101458.50;;;1.94;79.17
6778;BME280;3426;52.244;10.534;2023-01-26T09:20:39;101451.41;;;2.16;79.17
6778;BME280;3426;52.244;10.534;2023-01-26T09:23:06;101465.34;;;2.13;78.00
6778;BME280;3426;52.244;10.534;2023-01-26T09:25:35;101464.38;;;2.28;77.54
6778;BME280;3426;52.244;10.534;2023-01-26T09:28:03;101466.16;;;2.23;77.44
6778;BME280;3426;52.244;10.534;2023-01-26T09:30:31;101465.09;;;2.47;76.54
6778;BME280;3426;52.244;10.534;2023-01-26T09:32:59;101459.66;;;2.73;76.12
6778;BME280;3426;52.244;10.534;2023-01-26T09:35:26;101464.53;;;2.05;77.76
6778;BME280;3426;52.244;10.534;2023-01-26T09:37:53;101466.09;;;2.29;77.17
6778;BME280;3426;52.244;10.534;2023-01-26T09:40:36;101471.03;;;2.65;74.71
6778;BME280;3426;52.244;10.534;2023-01-26T09:43:21;101474.69;;;2.43;76.88
6778;BME280;3426;52.244;10.534;2023-01-26T09:46:02;101473.06;;;2.27;77.12
6778;BME280;3426;52.244;10.534;2023-01-26T09:48:52;101473.06;;;2.28;77.72
6778;BME280;3426;52.244;10.534;2023-01-26T09:51:37;101467.88;;;2.24;77.66
6778;BME280;3426;52.244;10.534;2023-01-26T09:57:11;101468.13;;;2.95;74.27
6778;BME280;3426;52.244;10.534;2023-01-26T09:59:47;101469.59;;;2.28;76.78
6778;BME280;3426;52.244;10.534;2023-01-26T10:04:44;101460.94;;;2.20;76.97
6778;BME280;3426;52.244;10.534;2023-01-26T10:07:12;101467.44;;;2.76;77.21
6778;BME280;3426;52.244;10.534;2023-01-26T10:09:42;101460.66;;;2.56;76.64
6778;BME280;3426;52.244;10.534;2023-01-26T10:12:30;101465.09;;;2.44;77.63
6778;BME280;3426;52.244;10.534;2023-01-26T10:15:26;101456.28;;;2.57;76.98
6778;BME280;3426;52.244;10.534;2023-01-26T10:17:54;101459.78;;;2.54;76.89
6778;BME280;3426;52.244;10.534;2023-01-26T10:20:34;101456.38;;;2.46;77.03
6778;BME280;3426;52.244;10.534;2023-01-26T10:25:40;101453.28;;;2.98;74.38
6778;BME280;3426;52.244;10.534;2023-01-26T10:30:42;101445.47;;;2.97;75.99
6778;BME280;3426;52.244;10.534;2023-01-26T10:33:33;101443.59;;;3.08;75.46
6778;BME280;3426;52.244;10.534;2023-01-26T10:36:02;101443.69;;;2.99;74.98
6778;BME280;3426;52.244;10.534;2023-01-26T10:49:00;101435.94;;;2.89;77.33
6778;BME280;3426;52.244;10.534;2023-01-26T10:51:30;101423.91;;;2.70;76.95
6778;BME280;3426;52.244;10.534;2023-01-26T10:54:19;101416.94;;;2.71;75.97
6778;BME280;3426;52.244;10.534;2023-01-26T10:56:57;101415.19;;;2.71;76.57
6778;BME280;3426;52.244;10.534;2023-01-26T10:59:55;101405.50;;;2.78;77.47
6778;BME280;3426;52.244;10.534;2023-01-26T11:02:30;101405.97;;;2.30;79.34
6778;BME280;3426;52.244;10.534;2023-01-26T11:05:19;101396.59;;;2.02;81.33
6778;BME280;3426;52.244;10.534;2023-01-26T11:07:48;101401.94;;;2.89;77.00
6778;BME280;3426;52.244;10.534;2023-01-26T11:13:18;101395.59;;;2.23;78.88
6778;BME280;3426;52.244;10.534;2023-01-26T11:16:18;101398.66;;;2.69;77.45
6778;BME280;3426;52.244;10.534;2023-01-26T11:21:45;101390.94;;;3.35;75.12
6778;BME280;3426;52.244;10.534;2023-01-26T11:24:25;101390.44;;;3.03;76.49
6778;BME280;3426;52.244;10.534;2023-01-26T11:27:35;101379.63;;;2.52;79.98
6778;BME280;3426;52.244;10.534;2023-01-26T11:33:38;101380.19;;;1.88;81.39
6778;BME280;3426;52.244;10.534;2023-01-26T11:41:31;101374.63;;;2.26;79.28
6778;BME280;3426;52.244;10.534;2023-01-26T11:44:24;101369.56;;;2.98;79.15
6778;BME280;3426;52.244;10.534;2023-01-26T11:49:50;101376.47;;;2.18;80.48
6778;BME280;3426;52.244;10.534;2023-01-26T11:52:34;101372.69;;;2.48;81.42
6778;BME280;3426;52.244;10.534;2023-01-26T12:00:47;101348.06;;;2.70;80.50
6778;BME280;3426;52.244;10.534;2023-01-26T12:06:05;101356.31;;;2.30;80.80
6778;BME280;3426;52.244;10.534;2023-01-26T12:08:42;101356.97;;;2.52;80.56
6778;BME280;3426;52.244;10.534;2023-01-26T12:11:30;101350.03;;;2.50;80.29
6778;BME280;3426;52.244;10.534;2023-01-26T12:19:58;101340.81;;;2.93;81.81
6778;BME280;3426;52.244;10.534;2023-01-26T12:22:33;101335.69;;;2.86;80.03
6778;BME280;3426;52.244;10.534;2023-01-26T12:33:15;101315.16;;;3.22;79.73
6778;BME280;3426;52.244;10.534;2023-01-26T12:38:39;101316.53;;;2.82;78.86
6778;BME280;3426;52.244;10.534;2023-01-26T12:44:25;101312.44;;;3.31;77.22
6778;BME280;3426;52.244;10.534;2023-01-26T12:46:53;101307.19;;;3.32;78.40
6778;BME280;3426;52.244;10.534;2023-01-26T12:49:26;101304.66;;;3.26;76.92
6778;BME280;3426;52.244;10.534;2023-01-26T12:52:00;101300.03;;;3.43;77.17
6778;BME280;3426;52.244;10.534;2023-01-26T12:54:43;101303.28;;;3.59;75.72
6778;BME280;3426;52.244;10.534;2023-01-26T12:57:16;101291.25;;;4.02;75.30
6778;BME280;3426;52.244;10.534;2023-01-26T12:59:44;101295.53;;;2.88;78.40
6778;BME280;3426;52.244;10.534;2023-01-26T13:04:44;101290.31;;;3.50;78.40
6778;BME280;3426;52.244;10.534;2023-01-26T13:07:38;101293.34;;;4.31;74.38
6778;BME280;3426;52.244;10.534;2023-01-26T13:15:22;101293.19;;;3.33;78.73
6778;BME280;3426;52.244;10.534;2023-01-26T13:20:40;101299.19;;;3.40;76.56
6778;BME280;3426;52.244;10.534;2023-01-26T13:31:53;101297.59;;;2.62;81.14
6778;BME280;3426;52.244;10.534;2023-01-26T13:34:38;101297.09;;;3.65;78.07
6778;BME280;3426;52.244;10.534;2023-01-26T13:37:15;101295.97;;;3.24;78.78
6778;BME280;3426;52.244;10.534;2023-01-26T13:39:48;101289.44;;;2.88;79.01
6778;BME280;3426;52.244;10.534;2023-01-26T13:42:41;101297.38;;;2.80;82.12
6778;BME280;3426;52.244;10.534;2023-01-26T13:45:21;101293.94;;;2.77;80.95
6778;BME280;3426;52.244;10.534;2023-01-26T13:47:53;101288.56;;;2.90;81.40
6778;BME280;3426;52.244;10.534;2023-01-26T13:50:31;101293.25;;;2.61;81.09
6778;BME280;3426;52.244;10.534;2023-01-26T13:52:59;101297.47;;;2.74;81.20
6778;BME280;3426;52.244;10.534;2023-01-26T13:55:30;101293.34;;;3.24;79.45
6778;BME280;3426;52.244;10.534;2023-01-26T13:58:17;101288.06;;;3.83;78.41
6778;BME280;3426;52.244;10.534;2023-01-26T14:01:09;101281.22;;;3.76;77.73
6778;BME280;3426;52.244;10.534;2023-01-26T14:03:36;101289.69;;;3.34;80.12
6778;BME280;3426;52.244;10.534;2023-01-26T14:06:10;101292.25;;;3.39;78.36
6778;BME280;3426;52.244;10.534;2023-01-26T14:08:38;101298.88;;;3.00;80.63
6778;BME280;3426;52.244;10.534;2023-01-26T14:11:15;101298.59;;;2.49;82.39
6778;BME280;3426;52.244;10.534;2023-01-26T14:13:46;101310.50;;;3.43;80.92
6778;BME280;3426;52.244;10.534;2023-01-26T14:16:28;101308.09;;;3.28;78.96
6778;BME280;3426;52.244;10.534;2023-01-26T14:19:05;101304.19;;;2.93;81.13
6778;BME280;3426;52.244;10.534;2023-01-26T14:21:44;101310.31;;;2.92;80.01
6778;BME280;3426;52.244;10.534;2023-01-26T14:24:11;101302.13;;;3.17;80.60
6778;BME280;3426;52.244;10.534;2023-01-26T14:26:39;101309.81;;;3.31;78.66
6778;BME280;3426;52.244;10.534;2023-01-26T14:29:21;101311.34;;;2.78;79.74
6778;BME280;3426;52.244;10.534;2023-01-26T14:31:50;101313.72;;;2.99;81.05
6778;BME280;3426;52.244;10.534;2023-01-26T14:34:21;101314.84;;;3.46;79.08
6778;BME280;3426;52.244;10.534;2023-01-26T14:36:48;101320.19;;;2.69;81.16
6778;BME280;3426;52.244;10.534;2023-01-26T14:39:17;101315.34;;;3.06;81.55
6778;BME280;3426;52.244;10.534;2023-01-26T14:41:43;101320.59;;;3.06;80.48
6778;BME280;3426;52.244;10.534;2023-01-26T14:44:11;101324.88;;;3.73;79.20
6778;BME280;3426;52.244;10.534;2023-01-26T14:51:58;101318.09;;;3.62;79.18
6778;BME280;3426;52.244;10.534;2023-01-26T14:54:31;101331.91;;;3.10;82.63
6778;BME280;3426;52.244;10.534;2023-01-26T14:57:05;101328.28;;;3.20;79.71
6778;BME280;3426;52.244;10.534;2023-01-26T14:59:39;101327.25;;;2.61;82.55
6778;BME280;3426;52.244;10.534;2023-01-26T15:04:45;101326.53;;;2.44;84.13
6778;BME280;3426;52.244;10.534;2023-01-26T15:07:37;101338.66;;;3.29;82.13
6778;BME280;3426;52.244;10.534;2023-01-26T15:10:33;101337.06;;;3.78;78.95
6778;BME280;3426;52.244;10.534;2023-01-26T15:15:40;101333.97;;;4.07;77.66
6778;BME280;3426;52.244;10.534;2023-01-26T15:20:43;101334.63;;;3.65;76.94